sensor_id;sensor_type;location;lat;lon;timestamp;temperature;humidity
69054;DHT22;56125;52.242;4.756;2023-12-20T00:00:29;18.30;58.50
69054;DHT22;56125;52.242;4.756;2023-12-20T00:05:31;18.40;58.40
69054;DHT22;56125;52.242;4.756;2023-12-20T00:10:36;18.40;58.40
69054;DHT22;56125;52.242;4.756;2023-12-20T00:15:37;18.30;58.30
69054;DHT22;56125;52.242;4.756;2023-12-20T00:20:38;18.30;58.00
69054;DHT22;56125;52.242;4.756;2023-12-20T00:25:39;18.30;58.00
69054;DHT22;56125;52.242;4.756;2023-12-20T00:30:40;18.30;58.20
69054;DHT22;56125;52.242;4.756;2023-12-20T00:35:41;18.30;58.00
69054;DHT22;56125;52.242;4.756;2023-12-20T00:40:42;18.30;57.90
69054;DHT22;56125;52.242;4.756;2023-12-20T00:45:43;18.30;58.80
69054;DHT22;56125;52.242;4.756;2023-12-20T00:50:44;18.30;57.60
69054;DHT22;56125;52.242;4.756;2023-12-20T00:55:45;18.20;57.40
69054;DHT22;56125;52.242;4.756;2023-12-20T01:00:46;18.20;57.70
69054;DHT22;56125;52.242;4.756;2023-12-20T01:05:47;18.30;57.30
69054;DHT22;56125;52.242;4.756;2023-12-20T01:10:49;18.20;57.30
69054;DHT22;56125;52.242;4.756;2023-12-20T01:15:50;18.20;57.10
69054;DHT22;56125;52.242;4.756;2023-12-20T01:20:51;18.20;57.10
69054;DHT22;56125;52.242;4.756;2023-12-20T01:25:52;18.20;57.20
69054;DHT22;56125;52.242;4.756;2023-12-20T01:30:53;18.20;57.30
69054;DHT22;56125;52.242;4.756;2023-12-20T01:35:54;18.20;56.80
69054;DHT22;56125;52.242;4.756;2023-12-20T01:40:55;18.20;56.60
69054;DHT22;56125;52.242;4.756;2023-12-20T01:45:57;18.20;56.60
69054;DHT22;56125;52.242;4.756;2023-12-20T01:50:59;18.20;56.70
69054;DHT22;56125;52.242;4.756;2023-12-20T01:56:01;18.20;56.70
69054;DHT22;56125;52.242;4.756;2023-12-20T02:01:02;18.20;56.70
69054;DHT22;56125;52.242;4.756;2023-12-20T02:06:04;18.20;56.60
69054;DHT22;56125;52.242;4.756;2023-12-20T02:11:06;18.10;56.60
69054;DHT22;56125;52.242;4.756;2023-12-20T02:16:07;18.10;56.00
69054;DHT22;56125;52.242;4.756;2023-12-20T02:21:09;18.10;56.10
69054;DHT22;56125;52.242;4.756;2023-12-20T02:26:10;18.10;56.60
69054;DHT22;56125;52.242;4.756;2023-12-20T02:31:11;18.10;56.10
69054;DHT22;56125;52.242;4.756;2023-12-20T02:36:12;18.10;56.00
69054;DHT22;56125;52.242;4.756;2023-12-20T02:41:13;17.70;55.90
69054;DHT22;56125;52.242;4.756;2023-12-20T02:46:18;18.10;56.00
69054;DHT22;56125;52.242;4.756;2023-12-20T02:51:19;18.10;55.60
69054;DHT22;56125;52.242;4.756;2023-12-20T02:56:20;18.10;55.70
69054;DHT22;56125;52.242;4.756;2023-12-20T03:01:21;18.10;55.70
69054;DHT22;56125;52.242;4.756;2023-12-20T03:06:22;18.10;55.50
69054;DHT22;56125;52.242;4.756;2023-12-20T03:11:26;18.10;55.60
69054;DHT22;56125;52.242;4.756;2023-12-20T03:16:28;18.10;55.40
69054;DHT22;56125;52.242;4.756;2023-12-20T03:21:29;18.10;55.40
69054;DHT22;56125;52.242;4.756;2023-12-20T03:26:30;18.10;55.30
69054;DHT22;56125;52.242;4.756;2023-12-20T03:31:31;18.10;56.00
69054;DHT22;56125;52.242;4.756;2023-12-20T03:36:32;18.00;54.60
69054;DHT22;56125;52.242;4.756;2023-12-20T03:41:33;18.10;54.60
69054;DHT22;56125;52.242;4.756;2023-12-20T03:46:34;18.10;54.50
69054;DHT22;56125;52.242;4.756;2023-12-20T03:51:35;18.10;54.40
69054;DHT22;56125;52.242;4.756;2023-12-20T03:56:36;18.10;54.20
69054;DHT22;56125;52.242;4.756;2023-12-20T04:01:37;18.10;54.20
69054;DHT22;56125;52.242;4.756;2023-12-20T04:06:38;18.10;54.50
69054;DHT22;56125;52.242;4.756;2023-12-20T04:11:39;18.10;54.00
69054;DHT22;56125;52.242;4.756;2023-12-20T04:16:40;18.10;54.10
69054;DHT22;56125;52.242;4.756;2023-12-20T04:21:41;18.10;54.90
69054;DHT22;56125;52.242;4.756;2023-12-20T04:26:42;18.10;54.10
69054;DHT22;56125;52.242;4.756;2023-12-20T04:31:43;18.10;53.70
69054;DHT22;56125;52.242;4.756;2023-12-20T04:36:44;18.20;53.70
69054;DHT22;56125;52.242;4.756;2023-12-20T04:41:46;18.20;53.50
69054;DHT22;56125;52.242;4.756;2023-12-20T04:46:48;18.10;53.50
69054;DHT22;56125;52.242;4.756;2023-12-20T04:51:49;18.20;53.50
69054;DHT22;56125;52.242;4.756;2023-12-20T04:56:50;18.20;53.50
69054;DHT22;56125;52.242;4.756;2023-12-20T05:01:51;18.20;53.20
69054;DHT22;56125;52.242;4.756;2023-12-20T05:06:52;18.20;53.20
69054;DHT22;56125;52.242;4.756;2023-12-20T05:11:53;18.20;53.10
69054;DHT22;56125;52.242;4.756;2023-12-20T05:16:54;18.10;52.80
69054;DHT22;56125;52.242;4.756;2023-12-20T05:21:55;18.30;53.00
69054;DHT22;56125;52.242;4.756;2023-12-20T05:26:56;18.30;52.80
69054;DHT22;56125;52.242;4.756;2023-12-20T05:31:58;18.40;52.80
69054;DHT22;56125;52.242;4.756;2023-12-20T05:36:59;18.30;52.60
69054;DHT22;56125;52.242;4.756;2023-12-20T05:42:00;18.30;52.60
69054;DHT22;56125;52.242;4.756;2023-12-20T05:47:01;18.40;52.50
69054;DHT22;56125;52.242;4.756;2023-12-20T05:52:02;18.40;52.50
69054;DHT22;56125;52.242;4.756;2023-12-20T05:57:03;18.40;52.50
69054;DHT22;56125;52.242;4.756;2023-12-20T06:02:05;18.00;52.10
69054;DHT22;56125;52.242;4.756;2023-12-20T06:07:06;18.50;52.30
69054;DHT22;56125;52.242;4.756;2023-12-20T06:12:07;18.50;52.10
69054;DHT22;56125;52.242;4.756;2023-12-20T06:17:11;18.50;52.10
69054;DHT22;56125;52.242;4.756;2023-12-20T06:22:12;18.50;52.10
69054;DHT22;56125;52.242;4.756;2023-12-20T06:27:13;18.50;51.90
69054;DHT22;56125;52.242;4.756;2023-12-20T06:32:15;18.50;52.20
69054;DHT22;56125;52.242;4.756;2023-12-20T06:37:16;18.60;52.00
69054;DHT22;56125;52.242;4.756;2023-12-20T06:42:17;18.60;52.00
69054;DHT22;56125;52.242;4.756;2023-12-20T06:47:18;18.60;51.80
69054;DHT22;56125;52.242;4.756;2023-12-20T06:52:19;18.60;51.60
69054;DHT22;56125;52.242;4.756;2023-12-20T06:57:20;18.60;51.50
69054;DHT22;56125;52.242;4.756;2023-12-20T07:02:21;18.60;51.50
69054;DHT22;56125;52.242;4.756;2023-12-20T07:07:23;18.60;51.40
69054;DHT22;56125;52.242;4.756;2023-12-20T07:12:25;18.60;51.30
69054;DHT22;56125;52.242;4.756;2023-12-20T07:17:26;18.60;51.30
69054;DHT22;56125;52.242;4.756;2023-12-20T07:22:28;18.60;51.20
69054;DHT22;56125;52.242;4.756;2023-12-20T07:27:29;18.60;51.10
69054;DHT22;56125;52.242;4.756;2023-12-20T07:32:30;18.60;51.20
69054;DHT22;56125;52.242;4.756;2023-12-20T07:37:31;18.60;51.20
69054;DHT22;56125;52.242;4.756;2023-12-20T07:42:32;18.60;51.00
69054;DHT22;56125;52.242;4.756;2023-12-20T07:47:33;18.70;50.90
69054;DHT22;56125;52.242;4.756;2023-12-20T07:52:34;18.70;52.10
69054;DHT22;56125;52.242;4.756;2023-12-20T07:57:35;18.70;50.80
69054;DHT22;56125;52.242;4.756;2023-12-20T08:02:36;18.70;50.90
69054;DHT22;56125;52.242;4.756;2023-12-20T08:07:37;18.70;50.80
69054;DHT22;56125;52.242;4.756;2023-12-20T08:12:38;18.70;50.80
69054;DHT22;56125;52.242;4.756;2023-12-20T08:17:41;18.80;50.70
69054;DHT22;56125;52.242;4.756;2023-12-20T08:22:42;18.80;50.70
69054;DHT22;56125;52.242;4.756;2023-12-20T08:27:43;18.70;50.50
69054;DHT22;56125;52.242;4.756;2023-12-20T08:32:44;18.80;50.70
69054;DHT22;56125;52.242;4.756;2023-12-20T08:37:45;18.80;50.60
69054;DHT22;56125;52.242;4.756;2023-12-20T08:42:46;18.80;50.70
69054;DHT22;56125;52.242;4.756;2023-12-20T08:47:47;18.80;50.50
69054;DHT22;56125;52.242;4.756;2023-12-20T08:52:48;19.00;50.80
69054;DHT22;56125;52.242;4.756;2023-12-20T08:57:49;18.90;50.60
69054;DHT22;56125;52.242;4.756;2023-12-20T09:02:51;18.90;50.50
69054;DHT22;56125;52.242;4.756;2023-12-20T09:07:52;18.90;50.70
69054;DHT22;56125;52.242;4.756;2023-12-20T09:12:54;19.00;50.60
69054;DHT22;56125;52.242;4.756;2023-12-20T09:17:57;19.00;50.50
69054;DHT22;56125;52.242;4.756;2023-12-20T09:22:59;19.00;50.50
69054;DHT22;56125;52.242;4.756;2023-12-20T09:28:00;19.00;51.30
69054;DHT22;56125;52.242;4.756;2023-12-20T09:33:01;19.00;50.60
69054;DHT22;56125;52.242;4.756;2023-12-20T09:38:02;19.00;50.50
69054;DHT22;56125;52.242;4.756;2023-12-20T09:43:04;19.00;50.40
69054;DHT22;56125;52.242;4.756;2023-12-20T09:48:07;19.00;50.60
69054;DHT22;56125;52.242;4.756;2023-12-20T09:53:15;19.00;50.50
69054;DHT22;56125;52.242;4.756;2023-12-20T09:58:16;19.00;50.40
69054;DHT22;56125;52.242;4.756;2023-12-20T10:03:18;19.10;50.50
69054;DHT22;56125;52.242;4.756;2023-12-20T10:08:24;19.00;50.40
69054;DHT22;56125;52.242;4.756;2023-12-20T10:13:25;19.10;50.50
69054;DHT22;56125;52.242;4.756;2023-12-20T10:18:29;19.10;50.50
69054;DHT22;56125;52.242;4.756;2023-12-20T10:23:30;18.70;50.20
69054;DHT22;56125;52.242;4.756;2023-12-20T10:28:34;19.10;50.40
69054;DHT22;56125;52.242;4.756;2023-12-20T10:33:36;19.10;50.20
69054;DHT22;56125;52.242;4.756;2023-12-20T10:38:38;19.10;50.40
69054;DHT22;56125;52.242;4.756;2023-12-20T10:43:42;19.10;50.50
69054;DHT22;56125;52.242;4.756;2023-12-20T10:48:44;19.10;50.50
69054;DHT22;56125;52.242;4.756;2023-12-20T10:53:47;19.10;50.50
69054;DHT22;56125;52.242;4.756;2023-12-20T10:58:50;19.10;50.40
69054;DHT22;56125;52.242;4.756;2023-12-20T11:03:52;19.10;50.40
69054;DHT22;56125;52.242;4.756;2023-12-20T11:09:20;19.10;50.40
69054;DHT22;56125;52.242;4.756;2023-12-20T11:14:27;19.10;50.30
69054;DHT22;56125;52.242;4.756;2023-12-20T11:19:30;19.10;50.40
69054;DHT22;56125;52.242;4.756;2023-12-20T11:24:31;19.10;50.30
69054;DHT22;56125;52.242;4.756;2023-12-20T11:29:36;19.10;50.30
69054;DHT22;56125;52.242;4.756;2023-12-20T11:34:37;19.10;50.40
69054;DHT22;56125;52.242;4.756;2023-12-20T11:39:38;19.10;50.40
69054;DHT22;56125;52.242;4.756;2023-12-20T11:44:39;19.10;50.40
69054;DHT22;56125;52.242;4.756;2023-12-20T11:49:43;19.10;50.30
69054;DHT22;56125;52.242;4.756;2023-12-20T11:54:44;19.10;50.40
69054;DHT22;56125;52.242;4.756;2023-12-20T11:59:45;19.10;50.40
69054;DHT22;56125;52.242;4.756;2023-12-20T12:04:48;19.10;50.40
69054;DHT22;56125;52.242;4.756;2023-12-20T12:09:49;19.00;50.50
69054;DHT22;56125;52.242;4.756;2023-12-20T12:14:50;18.90;50.60
69054;DHT22;56125;52.242;4.756;2023-12-20T12:20:04;19.00;50.70
69054;DHT22;56125;52.242;4.756;2023-12-20T12:25:12;18.90;50.70
69054;DHT22;56125;52.242;4.756;2023-12-20T12:30:16;18.90;50.90
69054;DHT22;56125;52.242;4.756;2023-12-20T12:35:19;18.80;50.80
69054;DHT22;56125;52.242;4.756;2023-12-20T12:40:20;18.60;50.80
69054;DHT22;56125;52.242;4.756;2023-12-20T12:45:21;18.70;50.80
69054;DHT22;56125;52.242;4.756;2023-12-20T12:50:23;18.70;50.90
69054;DHT22;56125;52.242;4.756;2023-12-20T12:55:24;18.80;51.10
69054;DHT22;56125;52.242;4.756;2023-12-20T13:00:25;18.70;51.40
69054;DHT22;56125;52.242;4.756;2023-12-20T13:05:26;18.70;51.90
69054;DHT22;56125;52.242;4.756;2023-12-20T13:10:28;18.30;51.80
69054;DHT22;56125;52.242;4.756;2023-12-20T13:15:29;18.80;52.30
69054;DHT22;56125;52.242;4.756;2023-12-20T13:20:31;18.80;52.40
69054;DHT22;56125;52.242;4.756;2023-12-20T13:25:32;18.80;52.50
69054;DHT22;56125;52.242;4.756;2023-12-20T13:30:34;18.80;52.60
69054;DHT22;56125;52.242;4.756;2023-12-20T13:35:36;18.80;52.60
69054;DHT22;56125;52.242;4.756;2023-12-20T13:40:37;18.80;52.80
69054;DHT22;56125;52.242;4.756;2023-12-20T13:45:38;18.80;52.80
69054;DHT22;56125;52.242;4.756;2023-12-20T13:50:39;18.90;52.90
69054;DHT22;56125;52.242;4.756;2023-12-20T13:55:40;18.90;52.90
69054;DHT22;56125;52.242;4.756;2023-12-20T14:00:41;18.70;52.80
69054;DHT22;56125;52.242;4.756;2023-12-20T14:05:42;18.80;52.80
69054;DHT22;56125;52.242;4.756;2023-12-20T14:10:43;18.90;53.10
69054;DHT22;56125;52.242;4.756;2023-12-20T14:15:45;18.80;52.90
69054;DHT22;56125;52.242;4.756;2023-12-20T14:20:48;18.90;53.00
69054;DHT22;56125;52.242;4.756;2023-12-20T14:25:49;18.80;52.80
69054;DHT22;56125;52.242;4.756;2023-12-20T14:30:50;18.90;52.90
69054;DHT22;56125;52.242;4.756;2023-12-20T14:35:51;18.80;52.80
69054;DHT22;56125;52.242;4.756;2023-12-20T14:40:53;18.90;52.50
69054;DHT22;56125;52.242;4.756;2023-12-20T14:45:55;18.80;52.10
69054;DHT22;56125;52.242;4.756;2023-12-20T14:50:56;18.80;51.90
69054;DHT22;56125;52.242;4.756;2023-12-20T14:55:57;18.70;51.80
69054;DHT22;56125;52.242;4.756;2023-12-20T15:00:58;18.70;52.00
69054;DHT22;56125;52.242;4.756;2023-12-20T15:05:59;18.70;51.70
69054;DHT22;56125;52.242;4.756;2023-12-20T15:11:00;18.70;51.90
69054;DHT22;56125;52.242;4.756;2023-12-20T15:16:02;18.70;52.10
69054;DHT22;56125;52.242;4.756;2023-12-20T15:21:03;18.70;52.20
69054;DHT22;56125;52.242;4.756;2023-12-20T15:26:06;18.70;52.30
69054;DHT22;56125;52.242;4.756;2023-12-20T15:31:07;18.70;52.00
69054;DHT22;56125;52.242;4.756;2023-12-20T15:36:08;18.70;51.70
69054;DHT22;56125;52.242;4.756;2023-12-20T15:41:09;18.60;51.80
69054;DHT22;56125;52.242;4.756;2023-12-20T15:46:17;18.60;51.90
69054;DHT22;56125;52.242;4.756;2023-12-20T15:51:20;18.60;52.00
69054;DHT22;56125;52.242;4.756;2023-12-20T15:56:22;18.60;52.00
69054;DHT22;56125;52.242;4.756;2023-12-20T16:01:23;18.60;51.90
69054;DHT22;56125;52.242;4.756;2023-12-20T16:06:24;18.50;52.10
69054;DHT22;56125;52.242;4.756;2023-12-20T16:11:25;18.50;52.00
69054;DHT22;56125;52.242;4.756;2023-12-20T16:16:26;18.50;51.90
69054;DHT22;56125;52.242;4.756;2023-12-20T16:21:27;18.50;52.00
69054;DHT22;56125;52.242;4.756;2023-12-20T16:26:28;18.50;52.10
69054;DHT22;56125;52.242;4.756;2023-12-20T16:31:29;18.50;52.20
69054;DHT22;56125;52.242;4.756;2023-12-20T16:37:00;18.50;52.30
69054;DHT22;56125;52.242;4.756;2023-12-20T16:42:02;18.60;52.40
69054;DHT22;56125;52.242;4.756;2023-12-20T16:47:03;18.40;52.40
69054;DHT22;56125;52.242;4.756;2023-12-20T16:52:04;18.40;52.50
69054;DHT22;56125;52.242;4.756;2023-12-20T16:57:06;18.40;52.30
69054;DHT22;56125;52.242;4.756;2023-12-20T17:02:07;18.40;52.50
69054;DHT22;56125;52.242;4.756;2023-12-20T17:07:08;18.40;52.60
69054;DHT22;56125;52.242;4.756;2023-12-20T17:12:09;18.30;52.60
69054;DHT22;56125;52.242;4.756;2023-12-20T17:17:10;18.30;52.60
69054;DHT22;56125;52.242;4.756;2023-12-20T17:22:11;18.30;52.70
69054;DHT22;56125;52.242;4.756;2023-12-20T17:27:12;18.30;53.10
69054;DHT22;56125;52.242;4.756;2023-12-20T17:32:13;18.30;53.20
69054;DHT22;56125;52.242;4.756;2023-12-20T17:37:14;18.30;53.30
69054;DHT22;56125;52.242;4.756;2023-12-20T17:42:17;18.30;53.40
69054;DHT22;56125;52.242;4.756;2023-12-20T17:47:21;18.30;53.50
69054;DHT22;56125;52.242;4.756;2023-12-20T17:52:23;18.30;53.40
69054;DHT22;56125;52.242;4.756;2023-12-20T17:57:24;18.20;53.40
69054;DHT22;56125;52.242;4.756;2023-12-20T18:02:25;18.30;53.60
69054;DHT22;56125;52.242;4.756;2023-12-20T18:07:26;18.30;53.70
69054;DHT22;56125;52.242;4.756;2023-12-20T18:12:27;18.80;53.90
69054;DHT22;56125;52.242;4.756;2023-12-20T18:17:28;18.30;53.50
69054;DHT22;56125;52.242;4.756;2023-12-20T18:22:29;18.30;54.50
69054;DHT22;56125;52.242;4.756;2023-12-20T18:27:31;18.30;53.50
69054;DHT22;56125;52.242;4.756;2023-12-20T18:32:32;18.30;53.60
69054;DHT22;56125;52.242;4.756;2023-12-20T18:37:34;17.90;53.50
69054;DHT22;56125;52.242;4.756;2023-12-20T18:42:36;18.30;53.70
69054;DHT22;56125;52.242;4.756;2023-12-20T18:47:37;18.30;54.20
69054;DHT22;56125;52.242;4.756;2023-12-20T18:52:38;18.30;54.50
69054;DHT22;56125;52.242;4.756;2023-12-20T18:57:39;18.30;54.30
69054;DHT22;56125;52.242;4.756;2023-12-20T19:02:40;18.30;54.20
69054;DHT22;56125;52.242;4.756;2023-12-20T19:07:41;18.30;54.20
69054;DHT22;56125;52.242;4.756;2023-12-20T19:12:42;18.30;54.60
69054;DHT22;56125;52.242;4.756;2023-12-20T19:17:43;18.30;54.50
69054;DHT22;56125;52.242;4.756;2023-12-20T19:22:44;18.30;54.40
69054;DHT22;56125;52.242;4.756;2023-12-20T19:27:45;18.30;54.60
69054;DHT22;56125;52.242;4.756;2023-12-20T19:32:46;18.30;54.50
69054;DHT22;56125;52.242;4.756;2023-12-20T19:37:47;18.30;54.50
69054;DHT22;56125;52.242;4.756;2023-12-20T19:42:50;18.30;54.60
69054;DHT22;56125;52.242;4.756;2023-12-20T19:47:52;18.30;54.60
69054;DHT22;56125;52.242;4.756;2023-12-20T19:52:53;18.30;54.50
69054;DHT22;56125;52.242;4.756;2023-12-20T19:57:54;18.30;54.60
69054;DHT22;56125;52.242;4.756;2023-12-20T20:02:56;18.90;54.90
69054;DHT22;56125;52.242;4.756;2023-12-20T20:07:57;18.30;54.70
69054;DHT22;56125;52.242;4.756;2023-12-20T20:12:58;18.30;54.70
69054;DHT22;56125;52.242;4.756;2023-12-20T20:18:01;18.30;54.60
69054;DHT22;56125;52.242;4.756;2023-12-20T20:23:02;18.30;54.50
69054;DHT22;56125;52.242;4.756;2023-12-20T20:28:03;18.30;54.50
69054;DHT22;56125;52.242;4.756;2023-12-20T20:33:04;18.30;54.50
69054;DHT22;56125;52.242;4.756;2023-12-20T20:38:05;18.30;54.40
69054;DHT22;56125;52.242;4.756;2023-12-20T20:43:06;18.20;54.30
69054;DHT22;56125;52.242;4.756;2023-12-20T20:48:08;18.30;54.30
69054;DHT22;56125;52.242;4.756;2023-12-20T20:53:11;18.20;54.30
69054;DHT22;56125;52.242;4.756;2023-12-20T20:58:12;18.20;54.30
69054;DHT22;56125;52.242;4.756;2023-12-20T21:03:13;18.20;54.30
69054;DHT22;56125;52.242;4.756;2023-12-20T21:08:14;18.20;54.20
69054;DHT22;56125;52.242;4.756;2023-12-20T21:13:15;18.20;54.20
69054;DHT22;56125;52.242;4.756;2023-12-20T21:18:16;18.20;54.30
69054;DHT22;56125;52.242;4.756;2023-12-20T21:23:17;18.20;54.20
69054;DHT22;56125;52.242;4.756;2023-12-20T21:28:18;18.20;54.20
69054;DHT22;56125;52.242;4.756;2023-12-20T21:33:20;18.20;54.30
69054;DHT22;56125;52.242;4.756;2023-12-20T21:38:22;18.20;54.20
69054;DHT22;56125;52.242;4.756;2023-12-20T21:43:23;18.10;54.10
69054;DHT22;56125;52.242;4.756;2023-12-20T21:48:24;18.10;54.10
69054;DHT22;56125;52.242;4.756;2023-12-20T21:53:26;18.20;54.10
69054;DHT22;56125;52.242;4.756;2023-12-20T21:58:27;18.60;54.30
69054;DHT22;56125;52.242;4.756;2023-12-20T22:03:28;18.10;54.20
69054;DHT22;56125;52.242;4.756;2023-12-20T22:08:29;18.20;54.10
69054;DHT22;56125;52.242;4.756;2023-12-20T22:13:30;18.10;54.10
69054;DHT22;56125;52.242;4.756;2023-12-20T22:18:32;18.00;54.00
69054;DHT22;56125;52.242;4.756;2023-12-20T22:23:33;18.10;54.10
69054;DHT22;56125;52.242;4.756;2023-12-20T22:28:34;18.10;54.10
69054;DHT22;56125;52.242;4.756;2023-12-20T22:33:35;18.10;54.10
69054;DHT22;56125;52.242;4.756;2023-12-20T22:38:37;18.10;54.10
69054;DHT22;56125;52.242;4.756;2023-12-20T22:43:39;18.10;54.20
69054;DHT22;56125;52.242;4.756;2023-12-20T22:48:40;18.10;54.10
69054;DHT22;56125;52.242;4.756;2023-12-20T22:53:41;18.00;54.10
69054;DHT22;56125;52.242;4.756;2023-12-20T22:58:42;18.10;54.10
69054;DHT22;56125;52.242;4.756;2023-12-20T23:03:43;18.10;54.20
69054;DHT22;56125;52.242;4.756;2023-12-20T23:08:44;18.10;54.20
69054;DHT22;56125;52.242;4.756;2023-12-20T23:13:45;18.10;54.10
69054;DHT22;56125;52.242;4.756;2023-12-20T23:18:46;18.10;54.10
69054;DHT22;56125;52.242;4.756;2023-12-20T23:23:48;18.10;54.20
69054;DHT22;56125;52.242;4.756;2023-12-20T23:28:49;18.00;54.20
69054;DHT22;56125;52.242;4.756;2023-12-20T23:33:50;18.00;54.20
69054;DHT22;56125;52.242;4.756;2023-12-20T23:38:52;18.10;54.20
69054;DHT22;56125;52.242;4.756;2023-12-20T23:43:53;18.00;54.10
69054;DHT22;56125;52.242;4.756;2023-12-20T23:48:54;18.00;54.20
69054;DHT22;56125;52.242;4.756;2023-12-20T23:53:55;18.00;54.30
69054;DHT22;56125;52.242;4.756;2023-12-20T23:58:56;18.00;54.20
